Columbus, OH

12:53 AM EST on December 18, 2014 (GMT -0500)
OHDOT 120-US33 @ Hamilton Road | Change Station
CLOSE
Current Station
Personal Weather Station
Location: Columbus, OH
Elevation: 751 ft
Nearby Weather Stations

Elev 751 ft 39.89 °N, 82.88 °W | Updated 52 minutes ago

Overcast
Overcast
28 °F
Feels Like 21 °F
N
6
Wind Variable Wind from SSW
Gusts 14.0 mph

Today
High -- | Low -- °F
--% Chance of Precip.
Yesterday
High -- | Low -- °F
Precip. -- in
7:47 AM 5:08 PM
Waning Crescent, 17% visible
Pressure 30.26 in
Visibility 10.0 miles
Clouds Overcast 2400 ft
Windchill 21 °F
Dew Point 18 °F
Humidity 66%
Rainfall -999.00 in
Snow Depth Not available.
UV 0 out of 12
Pollen .10 out of 12
Air Quality Not available.
Flu Activity Not available.
METAR KCMH 180451Z 31009KT 10SM OVC024 M03/M08 A3023 RMK AO2 SLP247 T10281078 400331028

More Conditions Fewer Conditions

Pressure 30.26 in
Visibility 10.0 miles
Clouds Overcast 2400 ft
Windchill 21 °F
Dew Point 18 °F
Humidity 66%
Rainfall -999.00 in
Snow Depth Not available.
UV 0 out of 12
Pollen .10 out of 12
Air Quality Not available.
Flu Activity Not available.
METAR KCMH 180451Z 31009KT 10SM OVC024 M03/M08 A3023 RMK AO2 SLP247 T10281078 400331028

More Conditions Fewer Conditions

10-Day Weather Forecast

Almanac

Astronomy

Dec. 18, 2014 Rise Set
Actual Time
Civil Twilight
Nautical Twilight
Astronomical Twilight
Moon
Length of Visible Light
Length of Day
Tomorrow will be .
, % of the Moon is Illuminated

Today's Extremes

State Highs State Lows

Community

WunderPhotos

Upload Photos

1,778,896 photos uploaded!

WunderBlogs® & News

Nearby

Air Quality

  Air Quality AQ Index Pollutant
Not available.

Snow Depth

Station Depth Elevation

Earthquake Activity

City Distance Mag. Time & Date
Minimum magnitude displayed is 2.5.

Coastal Water Temperatures

Place Temperature

Nearby Weather Stations